Terminal Aerodrome Forecast
Issued by NWS Jackson, MS

Home | Current Version | Previous Version | Text Only | Print | Product List | Glossary On
Versions: 1 2 3 4 5 6 7 8 9 10 11 12 13 14 15 16 17 18 19 20 21 22 23
000
FTUS44 KJAN 031400 AAB
TAFJAN
TAF AMD
KJAN 031447Z 0315/0412 17007KT 3SM BR OVC003
     FM031700 17009KT 6SM BR OVC006
     FM032000 17008KT P6SM OVC008
     FM032300 15005KT 4SM BR OVC003=

USA.gov is the U.S. government's official web portal to all federal, state and local government web resources and services.